Time;durP1;ratioP1;P1;durP2;ratioP2;P2;SDS_P1;SDS_P2;PMS_P1;PMS_P2;Temp;Humidity;BMP_temperature;BMP_pressure;BME280_temperature;BME280_humidity;BME280_pressure;Samples;Min_cycle;Max_cycle;Signal;HPM_P1;HPM_P2
2022/08/03 00:01:27;;;;;;;6.40;2.70;;;;;;;24.40;50.49;101445.56;5027439;28;121870;-76
2022/08/03 00:03:54;;;;;;;6.47;2.42;;;;;;;24.32;50.86;101437.31;5034558;28;114639;-76
2022/08/03 00:06:21;;;;;;;5.97;2.75;;;;;;;24.26;50.92;101436.91;5031908;27;115211;-76
2022/08/03 00:08:48;;;;;;;5.43;2.72;;;;;;;24.22;51.05;101431.91;5030426;28;123941;-76
2022/08/03 00:11:16;;;;;;;6.57;2.88;;;;;;;24.16;51.14;101437.91;5029851;28;123595;-76
2022/08/03 00:13:43;;;;;;;6.40;2.50;;;;;;;24.10;51.45;101444.75;5030274;28;114410;-77
2022/08/03 00:16:12;;;;;;;4.85;2.50;;;;;;;24.05;51.67;101441.59;5013069;28;113967;-77
2022/08/03 00:18:39;;;;;;;7.60;2.83;;;;;;;24.01;51.96;101437.47;5025580;28;123549;-77
2022/08/03 00:21:07;;;;;;;4.82;2.45;;;;;;;23.96;51.99;101437.91;5009041;28;123142;-77
2022/08/03 00:23:34;;;;;;;6.50;2.67;;;;;;;23.92;52.00;101446.44;5020034;28;113732;-77
2022/08/03 00:26:19;;;;;;;5.53;2.30;;;;;;;23.87;51.99;101441.47;5024635;28;113923;-76
2022/08/03 00:28:47;;;;;;;6.35;2.65;;;;;;;23.84;52.14;101439.88;5024712;28;123801;-77
2022/08/03 00:31:15;;;;;;;4.80;2.38;;;;;;;23.83;52.22;101437.34;5029028;28;124068;-76
2022/08/03 00:33:42;;;;;;;5.45;2.90;;;;;;;23.80;52.18;101438.47;5011432;27;112467;-77
2022/08/03 00:36:26;;;;;;;6.95;2.50;;;;;;;23.76;52.35;101439.72;5024824;28;115104;-76
2022/08/03 00:38:55;;;;;;;5.18;2.50;;;;;;;23.73;52.01;101445.38;5028906;28;124212;-77
2022/08/03 00:41:22;;;;;;;4.10;2.00;;;;;;;23.68;52.03;101439.56;5029469;28;123894;-76
2022/08/03 00:43:49;;;;;;;4.07;2.25;;;;;;;23.63;52.08;101447.25;5012414;28;113784;-77
2022/08/03 00:46:16;;;;;;;4.68;2.45;;;;;;;23.61;52.13;101443.81;5030543;28;113906;-76
2022/08/03 00:48:49;;;;;;;4.65;2.33;;;;;;;23.56;52.46;101441.50;5003309;28;122235;-76
2022/08/03 00:51:18;;;;;;;5.80;2.50;;;;;;;23.55;52.65;101444.38;5029968;28;123908;-76
2022/08/03 00:53:45;;;;;;;5.10;2.72;;;;;;;23.54;52.46;101437.25;5019689;28;114903;-76
2022/08/03 00:56:14;;;;;;;5.75;2.60;;;;;;;23.50;52.61;101437.53;5028037;28;114107;-76
2022/08/03 00:58:43;;;;;;;4.38;2.15;;;;;;;23.47;52.60;101443.22;5004534;28;122176;-76
2022/08/03 01:01:11;;;;;;;6.82;2.65;;;;;;;23.45;52.56;101445.22;5025110;28;123396;-76
2022/08/03 01:03:38;;;;;;;5.75;2.55;;;;;;;23.42;52.52;101434.66;5026850;28;114219;-77
2022/08/03 01:06:15;;;;;;;4.47;2.50;;;;;;;23.39;52.50;101434.94;5024286;27;113903;-77
2022/08/03 01:08:55;;;;;;;4.90;2.55;;;;;;;23.34;52.29;101434.50;5027805;28;123513;-77
2022/08/03 01:11:41;;;;;;;5.25;2.40;;;;;;;23.29;52.39;101431.38;5028001;28;123892;-77
2022/08/03 01:14:37;;;;;;;4.15;2.47;;;;;;;23.19;52.36;101427.75;5029061;28;113439;-77
2022/08/03 01:17:13;;;;;;;4.40;2.15;;;;;;;23.13;52.56;101429.16;5025567;28;113742;-77
2022/08/03 01:19:47;;;;;;;4.93;2.42;;;;;;;23.09;52.54;101434.00;5008416;28;123401;-77
2022/08/03 01:22:42;;;;;;;4.85;2.38;;;;;;;23.05;52.63;101426.28;5028523;28;121712;-77
2022/08/03 01:25:36;;;;;;;4.95;2.42;;;;;;;23.01;52.94;101425.69;5029501;27;113706;-77
2022/08/03 01:28:27;;;;;;;4.20;2.58;;;;;;;22.99;53.12;101416.84;5021982;28;113924;-77
2022/08/03 01:31:00;;;;;;;8.00;2.95;;;;;;;22.98;53.51;101420.56;5008262;28;123087;-77
2022/08/03 01:33:41;;;;;;;5.97;2.38;;;;;;;22.98;53.59;101415.16;5007038;28;123098;-77
2022/08/03 01:36:13;;;;;;;5.53;2.95;;;;;;;22.97;53.54;101413.44;5019244;28;113166;-77
2022/08/03 01:38:43;;;;;;;7.05;2.90;;;;;;;22.97;53.66;101418.84;5021072;28;114120;-77
2022/08/03 01:41:19;;;;;;;5.22;3.00;;;;;;;22.96;53.76;101417.13;5025253;28;123899;-77
2022/08/03 01:43:49;;;;;;;5.93;2.88;;;;;;;22.96;54.07;101417.13;5022409;28;123807;-77
2022/08/03 01:46:39;;;;;;;7.75;3.28;;;;;;;22.93;54.17;101422.81;5008454;28;115034;-77
2022/08/03 01:49:15;;;;;;;6.60;3.13;;;;;;;22.93;54.23;101422.81;5026338;28;114585;-77
2022/08/03 01:51:44;;;;;;;7.43;3.35;;;;;;;22.92;54.49;101426.50;5026749;28;123740;-77
2022/08/03 01:54:39;;;;;;;5.78;3.17;;;;;;;22.91;54.47;101424.78;5026234;28;123311;-77
2022/08/03 01:57:08;;;;;;;7.28;2.97;;;;;;;22.90;54.48;101412.25;5008312;28;112772;-76
2022/08/03 01:59:37;;;;;;;6.80;2.72;;;;;;;22.88;54.45;101414.25;5021880;28;115203;-77
2022/08/03 02:02:06;;;;;;;6.97;2.97;;;;;;;22.85;54.75;101411.81;5008708;28;123893;-77
2022/08/03 02:04:56;;;;;;;5.93;2.85;;;;;;;22.84;54.77;101404.72;5028734;28;123667;-77
2022/08/03 02:07:25;;;;;;;5.63;2.75;;;;;;;22.83;54.71;101405.69;5015780;28;113898;-77
2022/08/03 02:09:54;;;;;;;6.10;2.95;;;;;;;22.82;54.68;101404.00;5025978;28;113471;-77
2022/08/03 02:12:23;;;;;;;6.78;2.80;;;;;;;22.80;54.72;101406.81;4996304;28;123940;-77
2022/08/03 02:14:52;;;;;;;6.20;2.70;;;;;;;22.80;54.62;101405.97;4993709;28;124272;-77
2022/08/03 02:17:21;;;;;;;4.88;3.03;;;;;;;22.78;54.83;101397.16;4988808;28;115109;-77
2022/08/03 02:20:12;;;;;;;6.75;3.00;;;;;;;22.76;54.93;101404.53;4992364;28;113246;-77
2022/08/03 02:22:40;;;;;;;8.75;3.13;;;;;;;22.74;55.06;101408.22;5005021;28;124207;-77
2022/08/03 02:25:09;;;;;;;4.70;2.83;;;;;;;22.72;55.33;101404.81;4989386;28;125146;-77
2022/08/03 02:27:41;;;;;;;8.63;3.40;;;;;;;22.71;55.40;101397.69;5009976;27;113177;-77
2022/08/03 02:30:12;;;;;;;5.32;2.88;;;;;;;22.69;55.46;101399.66;4994305;28;114073;-77
2022/08/03 02:32:41;;;;;;;6.50;3.25;;;;;;;22.69;55.52;101398.81;5010498;28;123748;-77
2022/08/03 02:35:14;;;;;;;7.75;3.15;;;;;;;22.67;55.52;101396.25;5014221;27;123215;-77
2022/08/03 02:37:45;;;;;;;5.75;3.25;;;;;;;22.65;55.44;101398.22;5009527;27;114968;-77
2022/08/03 02:40:18;;;;;;;5.38;2.90;;;;;;;22.65;55.59;101391.97;4996612;28;115108;-77
2022/08/03 02:42:47;;;;;;;8.55;3.40;;;;;;;22.63;55.56;101394.81;5006124;27;122978;-76
2022/08/03 02:45:17;;;;;;;9.05;3.40;;;;;;;22.62;55.74;101395.81;4991924;28;123744;-77
2022/08/03 02:47:47;;;;;;;8.77;3.17;;;;;;;22.60;55.76;101386.97;5011379;27;114091;-77
2022/08/03 02:50:22;;;;;;;8.75;3.38;;;;;;;22.59;55.84;101393.38;5024038;28;113987;-77
2022/08/03 02:52:51;;;;;;;8.63;3.10;;;;;;;22.54;56.02;101384.81;5027070;27;123244;-77
2022/08/03 02:55:20;;;;;;;7.55;3.30;;;;;;;22.53;56.00;101385.81;5027466;28;123790;-77
2022/08/03 02:57:48;;;;;;;6.10;3.13;;;;;;;22.52;56.02;101393.03;5018280;28;112387;-77
2022/08/03 03:00:16;;;;;;;6.82;3.30;;;;;;;22.51;56.09;101385.09;5024172;28;112950;-77
2022/08/03 03:02:57;;;;;;;7.93;3.58;;;;;;;22.49;56.18;101382.53;5022048;28;124156;-77
2022/08/03 03:05:25;;;;;;;6.38;3.25;;;;;;;22.49;56.30;101387.03;5022109;28;124059;-77
2022/08/03 03:08:15;;;;;;;6.47;3.40;;;;;;;22.47;56.25;101384.50;5026138;28;112608;-77
2022/08/03 03:10:46;;;;;;;5.90;3.20;;;;;;;22.46;56.32;101387.31;5038013;27;114144;-77
2022/08/03 03:13:14;;;;;;;8.77;3.17;;;;;;;22.45;56.46;101385.59;5040979;28;122467;-75
2022/08/03 03:15:43;;;;;;;8.38;3.40;;;;;;;22.46;56.49;101387.31;5046542;28;124718;-76
2022/08/03 03:18:12;;;;;;;7.95;3.22;;;;;;;22.46;56.32;101387.31;5053834;27;116295;-77
2022/08/03 03:20:40;;;;;;;10.43;3.28;;;;;;;22.46;56.40;101387.31;5021968;28;111900;-77
2022/08/03 03:23:08;;;;;;;8.55;3.53;;;;;;;22.47;56.42;101383.63;5024202;28;122911;-77
2022/08/03 03:25:37;;;;;;;7.95;3.47;;;;;;;22.48;56.32;101390.75;5023317;28;123473;-77
2022/08/03 03:28:04;;;;;;;6.15;3.65;;;;;;;22.47;56.63;101389.03;5025534;28;113288;-77
2022/08/03 03:30:33;;;;;;;10.13;3.53;;;;;;;22.46;56.49;101384.63;5026029;27;114967;-77
2022/08/03 03:33:01;;;;;;;8.02;3.90;;;;;;;22.45;56.67;101383.78;5013663;27;123517;-77
2022/08/03 03:35:28;;;;;;;10.48;3.45;;;;;;;22.44;56.87;101383.91;5027226;28;124137;-77
2022/08/03 03:37:56;;;;;;;6.82;3.60;;;;;;;22.43;56.75;101387.59;5026224;28;113646;-77
2022/08/03 03:40:23;;;;;;;12.25;4.00;;;;;;;22.42;56.75;101391.28;5028871;28;114447;-77
2022/08/03 03:42:51;;;;;;;9.65;3.80;;;;;;;22.41;56.73;101389.56;5031454;27;124006;-77
2022/08/03 03:45:19;;;;;;;7.50;3.60;;;;;;;22.41;56.79;101384.16;5030444;27;122467;-77
2022/08/03 03:47:46;;;;;;;5.60;3.80;;;;;;;22.41;57.10;101379.63;5031398;28;114581;-77
2022/08/03 03:50:16;;;;;;;7.32;3.88;;;;;;;22.42;57.14;101380.50;5027443;28;113534;-77
2022/08/03 03:52:43;;;;;;;8.52;4.10;;;;;;;22.43;57.09;101376.78;5022159;28;124784;-77
2022/08/03 03:55:15;;;;;;;8.43;3.72;;;;;;;22.43;57.19;101382.19;5023682;28;123420;-77
2022/08/03 03:57:42;;;;;;;8.40;4.13;;;;;;;22.45;57.16;101391.00;5039439;27;113228;-77
2022/08/03 04:00:15;;;;;;;7.38;4.07;;;;;;;22.47;57.51;101394.41;5031936;28;113957;-77
2022/08/03 04:02:42;;;;;;;6.30;3.97;;;;;;;22.48;57.39;101385.34;5024647;28;125010;-77
2022/08/03 04:11:18;;;;;;;7.15;4.32;;;;;;;22.51;57.72;101390.50;5018248;28;113169;-77
2022/08/03 04:14:02;;;;;;;6.68;4.28;;;;;;;22.53;57.86;101388.50;5015165;28;122345;-77
2022/08/03 04:16:36;;;;;;;10.18;4.53;;;;;;;22.56;57.94;101385.53;5021226;27;123301;-77
2022/08/03 04:19:16;;;;;;;14.70;4.57;;;;;;;22.60;57.97;101395.06;5021245;28;115334;-77
2022/08/03 04:21:53;;;;;;;10.07;4.20;;;;;;;22.63;57.87;101393.97;5020922;28;114694;-77
2022/08/03 04:24:31;;;;;;;8.50;4.40;;;;;;;22.65;57.93;101387.41;5009561;27;123199;-77
2022/08/03 04:27:01;;;;;;;7.82;4.07;;;;;;;22.69;57.82;101394.25;5028598;27;122228;-77
2022/08/03 04:29:32;;;;;;;6.78;4.50;;;;;;;22.69;57.82;101388.84;5013404;28;114585;-77
2022/08/03 04:31:59;;;;;;;10.82;4.20;;;;;;;22.72;57.80;101391.28;5017999;28;114012;-77
2022/08/03 04:34:29;;;;;;;8.05;4.45;;;;;;;22.74;57.79;101391.16;5030109;27;123610;-76
2022/08/03 04:36:59;;;;;;;10.30;4.57;;;;;;;22.76;57.95;101389.19;5022228;28;125486;-77
2022/08/03 04:39:29;;;;;;;10.15;3.97;;;;;;;22.78;57.78;101394.47;5019895;28;112563;-77
2022/08/03 04:42:01;;;;;;;8.95;4.65;;;;;;;22.79;57.98;101398.84;5016294;28;114049;-77
2022/08/03 04:44:37;;;;;;;6.80;3.80;;;;;;;22.81;57.93;101391.47;4988191;28;123882;-77
2022/08/03 04:47:05;;;;;;;8.75;4.55;;;;;;;22.84;57.92;101391.22;5001598;28;124027;-77
2022/08/03 04:49:35;;;;;;;10.82;4.95;;;;;;;22.87;57.98;101401.75;5008370;28;113770;-77
2022/08/03 04:52:04;;;;;;;7.72;4.20;;;;;;;22.90;57.95;101396.06;5003744;28;113841;-77
2022/08/03 04:54:38;;;;;;;9.75;4.70;;;;;;;22.91;58.03;101406.72;5002205;28;123529;-77
2022/08/03 04:57:05;;;;;;;10.50;5.20;;;;;;;22.93;57.78;101396.66;4995087;28;123883;-77
2022/08/03 04:59:34;;;;;;;9.52;4.40;;;;;;;22.96;57.72;101400.91;5010231;28;114419;-77
2022/08/03 05:02:06;;;;;;;7.07;4.53;;;;;;;22.99;57.64;101403.34;5029161;28;113902;-77
2022/08/03 05:04:34;;;;;;;8.00;4.05;;;;;;;23.01;57.68;101404.06;5029287;28;124195;-77
2022/08/03 05:07:01;;;;;;;8.50;4.50;;;;;;;23.03;57.74;101396.69;5011036;28;121802;-77
2022/08/03 05:09:38;;;;;;;8.43;4.40;;;;;;;23.06;57.59;101404.53;5007709;28;113942;-77
2022/08/03 05:12:18;;;;;;;6.90;4.18;;;;;;;23.08;57.71;101410.66;5027870;27;114183;-77
2022/08/03 05:14:45;;;;;;;9.07;4.35;;;;;;;23.10;57.67;101402.44;5017869;28;122158;-77
2022/08/03 05:17:12;;;;;;;6.93;4.40;;;;;;;23.12;57.88;101404.00;5043533;27;123717;-77
2022/08/03 05:19:39;;;;;;;7.60;4.20;;;;;;;23.12;57.78;101406.69;5015429;28;113058;-77
2022/08/03 05:22:06;;;;;;;9.73;4.20;;;;;;;23.17;57.69;101413.53;5022116;28;113789;-77
2022/08/03 05:24:34;;;;;;;7.80;4.45;;;;;;;23.18;57.62;101409.84;4999339;28;123522;-77
2022/08/03 05:27:01;;;;;;;8.13;4.25;;;;;;;23.19;57.59;101408.84;5024331;28;122887;-77
2022/08/03 05:29:28;;;;;;;8.63;4.00;;;;;;;23.22;57.54;101417.53;5021983;28;114766;-77
2022/08/03 05:31:55;;;;;;;8.50;4.55;;;;;;;23.25;57.72;101421.81;5028187;28;112911;-77
2022/08/03 05:34:22;;;;;;;8.63;3.75;;;;;;;23.29;57.74;101420.56;5028299;28;123421;-77
2022/08/03 05:36:49;;;;;;;7.50;3.80;;;;;;;23.32;57.64;101417.59;5028219;28;122921;-79
2022/08/03 05:39:16;;;;;;;10.20;4.13;;;;;;;23.35;57.64;101417.28;5023612;28;115457;-76
2022/08/03 05:41:44;;;;;;;5.28;3.60;;;;;;;23.40;57.72;101415.03;5018441;28;113804;-77
2022/08/03 05:44:11;;;;;;;8.40;4.15;;;;;;;23.44;57.56;101427.28;5026632;28;123855;-76
2022/08/03 05:46:38;;;;;;;9.18;4.00;;;;;;;23.47;57.54;101427.00;5023533;28;122714;-75
2022/08/03 05:49:05;;;;;;;10.30;4.35;;;;;;;23.49;57.46;101425.00;5016201;28;114356;-76
2022/08/03 05:51:32;;;;;;;6.75;4.05;;;;;;;23.52;57.52;101430.13;5021014;27;112895;-75
2022/08/03 05:53:59;;;;;;;10.10;4.70;;;;;;;23.56;57.37;101424.44;5025460;27;124091;-75
2022/08/03 05:56:27;;;;;;;9.75;4.38;;;;;;;23.59;57.38;101435.00;5023582;28;124771;-76
2022/08/03 05:58:54;;;;;;;8.77;4.60;;;;;;;23.61;57.36;101430.28;4999116;28;114278;-76
2022/08/03 06:01:21;;;;;;;8.30;4.10;;;;;;;23.64;57.55;101430.88;5013733;28;114777;-75
2022/08/03 06:03:49;;;;;;;8.60;4.53;;;;;;;23.67;57.36;101433.28;5001360;28;123471;-75
2022/08/03 06:06:17;;;;;;;7.78;4.10;;;;;;;23.70;57.32;101426.75;5004959;28;122617;-75
2022/08/03 06:08:45;;;;;;;7.32;4.22;;;;;;;23.74;57.31;101433.59;5015592;28;113385;-75
2022/08/03 06:11:12;;;;;;;10.13;3.90;;;;;;;23.77;57.15;101430.63;5013674;28;114012;-76
2022/08/03 06:13:39;;;;;;;7.70;4.22;;;;;;;23.82;57.30;101430.22;4999859;28;124126;-75
2022/08/03 06:16:07;;;;;;;7.55;4.30;;;;;;;23.86;57.45;101437.88;5010337;28;123103;-75
2022/08/03 06:18:35;;;;;;;10.10;4.32;;;;;;;23.93;57.28;101429.22;5013807;27;113903;-75
2022/08/03 06:21:02;;;;;;;6.18;4.20;;;;;;;23.98;57.18;101435.03;5020323;28;113826;-75
2022/08/03 06:23:42;;;;;;;6.47;3.90;;;;;;;24.05;57.30;101436.19;5026976;27;124258;-77
2022/08/03 06:26:25;;;;;;;9.20;4.05;;;;;;;24.11;57.05;101441.06;5024181;27;123279;-76
2022/08/03 06:28:53;;;;;;;7.22;3.33;;;;;;;24.19;57.01;101438.47;5025216;28;114185;-76
2022/08/03 06:31:24;;;;;;;8.30;3.28;;;;;;;24.26;56.82;101439.59;5018032;28;113651;-77
2022/08/03 06:33:51;;;;;;;7.72;3.25;;;;;;;24.36;56.82;101438.75;5018859;28;123509;-77
2022/08/03 06:36:38;;;;;;;6.88;3.10;;;;;;;24.46;56.81;101440.41;5009274;28;124550;-77
2022/08/03 06:39:06;;;;;;;7.18;3.20;;;;;;;24.57;56.53;101431.31;4998883;28;113414;-77
2022/08/03 06:41:34;;;;;;;5.90;2.70;;;;;;;24.71;56.39;101437.25;5018445;28;112631;-77
2022/08/03 06:44:11;;;;;;;7.53;3.00;;;;;;;24.84;56.06;101437.78;5011020;28;123319;-77
2022/08/03 06:46:38;;;;;;;6.45;2.70;;;;;;;24.96;55.86;101442.03;4994058;28;122860;-77
2022/08/03 06:49:06;;;;;;;6.30;2.67;;;;;;;25.08;55.96;101441.84;5012706;28;115231;-78
2022/08/03 06:51:33;;;;;;;7.45;2.03;;;;;;;25.21;55.51;101445.06;5021274;28;114520;-77
2022/08/03 06:54:21;;;;;;;5.57;2.13;;;;;;;25.34;55.14;101451.03;5003043;28;123356;-78
2022/08/03 06:56:48;;;;;;;6.82;2.30;;;;;;;25.51;54.64;101445.78;5022331;28;123019;-78
2022/08/03 06:59:15;;;;;;;6.45;2.42;;;;;;;25.64;54.51;101451.69;5016917;28;112292;-78
2022/08/03 07:02:02;;;;;;;8.55;2.25;;;;;;;25.83;54.31;101456.13;5017948;28;114229;-78
2022/08/03 07:04:29;;;;;;;5.43;2.20;;;;;;;26.00;54.25;101452.59;5029636;28;123527;-78
2022/08/03 07:06:57;;;;;;;3.97;2.20;;;;;;;26.16;54.21;101451.91;5029247;28;125270;-78
2022/08/03 07:09:25;;;;;;;8.13;2.55;;;;;;;26.33;53.78;101452.88;5022809;27;112468;-78
2022/08/03 07:11:53;;;;;;;7.78;2.42;;;;;;;26.46;53.12;101441.59;5034965;28;113317;-77
2022/08/03 07:14:20;;;;;;;6.75;2.10;;;;;;;26.60;52.89;101449.22;5013931;28;124027;-77
2022/08/03 07:16:48;;;;;;;6.88;2.20;;;;;;;26.75;52.36;101452.19;5011841;28;123760;-77
2022/08/03 07:19:15;;;;;;;7.40;2.33;;;;;;;26.91;52.38;101456.88;5011968;28;114182;-77
2022/08/03 07:21:42;;;;;;;7.65;3.08;;;;;;;27.08;52.07;101451.53;4994786;28;112201;-77
2022/08/03 07:24:09;;;;;;;6.90;2.35;;;;;;;27.22;51.26;101459.06;5024973;28;123982;-77
2022/08/03 07:26:36;;;;;;;5.10;1.95;;;;;;;27.31;50.99;101458.13;5010904;28;121963;-77
2022/08/03 07:29:04;;;;;;;3.88;1.63;;;;;;;27.44;50.96;101456.78;5011847;28;114218;-77
2022/08/03 07:31:41;;;;;;;10.27;2.10;;;;;;;27.57;50.62;101459.91;5011627;28;113540;-77
2022/08/03 07:34:08;;;;;;;6.28;2.20;;;;;;;27.67;50.23;101463.34;5012832;28;123584;-78
2022/08/03 07:36:36;;;;;;;3.58;1.88;;;;;;;27.77;50.52;101461.31;5017046;28;121998;-78
2022/08/03 07:39:03;;;;;;;5.85;1.67;;;;;;;27.90;50.20;101457.28;4999727;28;114377;-78
2022/08/03 07:41:45;;;;;;;4.03;1.58;;;;;;;28.02;49.73;101460.53;5015310;28;114934;-78
2022/08/03 07:44:12;;;;;;;6.22;1.77;;;;;;;28.10;49.37;101464.09;5017086;28;123840;-79
2022/08/03 07:46:39;;;;;;;3.78;1.70;;;;;;;28.22;49.18;101463.75;5017638;28;125188;-78
2022/08/03 07:49:07;;;;;;;6.22;1.80;;;;;;;28.31;49.11;101460.88;5017390;28;114823;-78
2022/08/03 07:51:35;;;;;;;5.70;1.92;;;;;;;28.45;49.02;101459.31;5017721;28;112911;-78
2022/08/03 07:54:02;;;;;;;7.82;1.90;;;;;;;28.61;48.54;101465.81;5019610;28;124071;-78
2022/08/03 07:56:29;;;;;;;8.05;2.00;;;;;;;28.72;48.58;101457.28;5017850;28;121989;-78
2022/08/03 07:58:56;;;;;;;6.93;1.60;;;;;;;28.83;48.03;101464.25;5020768;28;113254;-78
2022/08/03 08:01:24;;;;;;;4.97;1.50;;;;;;;28.92;47.78;101466.75;5019485;28;115633;-79
2022/08/03 08:03:51;;;;;;;5.60;1.63;;;;;;;29.02;47.25;101463.00;5021321;27;123996;-78
2022/08/03 08:06:20;;;;;;;6.15;1.67;;;;;;;29.08;46.98;101456.81;5028093;28;124581;-78
2022/08/03 08:08:48;;;;;;;7.45;1.83;;;;;;;29.12;46.74;101458.16;5017892;28;113861;-78
2022/08/03 08:11:15;;;;;;;4.45;1.17;;;;;;;29.17;46.41;101453.06;5019036;28;116446;-78
2022/08/03 08:13:42;;;;;;;6.53;1.67;;;;;;;29.23;46.55;101459.69;5011793;28;122985;-78
2022/08/03 08:16:09;;;;;;;7.38;1.70;;;;;;;29.31;46.41;101452.34;5019427;28;122741;-77
2022/08/03 08:18:36;;;;;;;5.63;1.52;;;;;;;29.43;46.10;101449.22;5017661;28;113953;-77
2022/08/03 08:21:03;;;;;;;6.43;1.70;;;;;;;29.51;45.65;101446.44;5000443;28;113296;-77
2022/08/03 08:23:30;;;;;;;7.10;1.80;;;;;;;29.61;45.60;101452.53;4999829;28;123648;-78
2022/08/03 08:26:10;;;;;;;5.85;1.70;;;;;;;29.72;45.26;101450.41;5016953;28;123675;-77
2022/08/03 08:28:37;;;;;;;9.15;1.65;;;;;;;29.77;44.92;101450.75;5016503;28;115116;-78
2022/08/03 08:31:05;;;;;;;4.22;1.40;;;;;;;29.84;44.80;101449.00;4998408;28;113731;-77
2022/08/03 08:33:33;;;;;;;7.60;1.42;;;;;;;29.87;44.50;101457.66;5017703;28;122209;-77
2022/08/03 08:36:20;;;;;;;6.28;1.35;;;;;;;29.92;44.20;101454.41;5017678;28;123163;-77
2022/08/03 08:38:47;;;;;;;7.25;1.80;;;;;;;29.94;44.00;101457.78;5024573;28;115324;-77
2022/08/03 08:41:15;;;;;;;7.20;1.70;;;;;;;29.99;44.03;101455.38;5025938;28;113850;-77
2022/08/03 08:43:42;;;;;;;6.30;1.60;;;;;;;30.04;43.96;101452.91;5019350;28;124906;-77
2022/08/03 08:46:11;;;;;;;8.05;1.75;;;;;;;30.13;43.35;101455.59;5020915;28;123781;-77
2022/08/03 08:48:51;;;;;;;5.10;1.40;;;;;;;30.19;43.49;101460.34;5018009;28;113380;-77
2022/08/03 08:51:20;;;;;;;8.50;2.08;;;;;;;30.26;43.42;101464.03;5022882;28;114218;-77
2022/08/03 08:53:52;;;;;;;6.90;1.58;;;;;;;30.31;43.26;101447.94;5027477;28;124092;-77
2022/08/03 08:56:24;;;;;;;7.75;1.83;;;;;;;30.39;43.55;101450.63;5018432;28;124852;-77
2022/08/03 08:58:57;;;;;;;5.07;1.58;;;;;;;30.51;43.32;101452.91;4987296;28;113107;-77
2022/08/03 09:01:25;;;;;;;7.45;1.52;;;;;;;30.63;43.56;101451.44;5027560;28;114807;-78
2022/08/03 09:03:53;;;;;;;5.57;1.70;;;;;;;30.73;43.08;101452.00;5035697;28;124863;-77
2022/08/03 09:06:21;;;;;;;8.25;1.67;;;;;;;30.84;42.42;101451.53;5030485;28;123349;-77
2022/08/03 09:08:48;;;;;;;5.25;1.70;;;;;;;30.90;42.42;101457.28;5014200;28;113738;-77
2022/08/03 09:11:20;;;;;;;6.03;1.77;;;;;;;30.97;42.51;101447.31;5017409;28;111721;-77
2022/08/03 09:14:08;;;;;;;6.38;1.60;;;;;;;31.06;42.52;101451.63;5035127;28;124756;-77
2022/08/03 09:16:35;;;;;;;4.53;1.30;;;;;;;31.14;42.66;101453.44;5050781;27;122661;-77
2022/08/03 09:19:13;;;;;;;6.38;1.85;;;;;;;31.21;41.99;101455.22;5025211;28;115955;-77
2022/08/03 09:21:41;;;;;;;6.53;1.67;;;;;;;31.27;42.24;101447.28;5007605;28;113985;-77
2022/08/03 09:24:08;;;;;;;6.50;1.70;;;;;;;31.33;41.85;101452.00;5003022;28;123379;-77
2022/08/03 09:26:52;;;;;;;4.22;1.60;;;;;;;31.43;41.91;101449.78;5017628;28;124496;-77
2022/08/03 09:29:21;;;;;;;6.75;1.65;;;;;;;31.54;42.54;101449.34;5002967;27;113968;-78
2022/08/03 09:31:48;;;;;;;7.47;1.85;;;;;;;31.65;41.62;101452.59;5024045;28;112303;-76
2022/08/03 09:34:16;;;;;;;6.15;1.92;;;;;;;31.77;40.90;101448.31;5015073;28;123429;-77
2022/08/03 09:36:49;;;;;;;8.18;1.98;;;;;;;31.83;41.41;101447.53;5007992;28;123283;-77
2022/08/03 09:39:22;;;;;;;7.38;1.70;;;;;;;31.90;40.99;101445.72;5013203;28;114427;-77
2022/08/03 09:42:10;;;;;;;8.32;1.83;;;;;;;31.98;40.86;101445.56;5001902;28;113478;-76
2022/08/03 09:44:46;;;;;;;6.32;1.40;;;;;;;32.08;41.00;101444.41;5006414;28;124281;-77
2022/08/03 09:47:28;;;;;;;6.57;1.70;;;;;;;32.16;40.26;101447.03;5007121;28;123921;-77
2022/08/03 09:50:00;;;;;;;6.57;1.90;;;;;;;32.21;39.89;101439.06;5010670;28;114201;-77
2022/08/03 09:52:34;;;;;;;7.50;1.85;;;;;;;32.25;40.23;101451.34;5013935;28;113321;-76
2022/08/03 09:55:19;;;;;;;7.45;1.60;;;;;;;32.33;39.49;101448.44;5000799;27;122166;-77
2022/08/03 09:58:09;;;;;;;8.80;1.60;;;;;;;32.42;39.29;101451.03;4980945;28;123535;-77
2022/08/03 10:00:52;;;;;;;4.70;1.70;;;;;;;32.51;39.31;101456.19;5008663;28;114238;-77
2022/08/03 10:03:20;;;;;;;7.47;1.80;;;;;;;32.59;39.36;101449.75;5007144;28;114342;-77
2022/08/03 10:05:47;;;;;;;6.95;1.50;;;;;;;32.68;39.10;101451.28;5010626;28;122752;-77
2022/08/03 10:08:16;;;;;;;7.07;1.75;;;;;;;32.76;38.55;101453.84;4995944;28;123861;-76
2022/08/03 10:10:44;;;;;;;10.13;1.85;;;;;;;32.82;38.74;101448.63;5014277;28;113355;-76
2022/08/03 10:13:17;;;;;;;7.88;1.75;;;;;;;32.86;38.38;101441.69;5018292;28;114641;-76
2022/08/03 10:15:45;;;;;;;7.80;1.70;;;;;;;32.94;38.07;101444.25;4985951;28;123722;-76
2022/08/03 10:18:32;;;;;;;4.47;1.75;;;;;;;33.00;38.29;101443.44;5012935;27;123727;-77
2022/08/03 10:21:06;;;;;;;6.32;1.70;;;;;;;33.05;37.51;101451.91;5011736;28;113973;-76
2022/08/03 10:23:33;;;;;;;5.18;1.92;;;;;;;33.07;37.60;101433.31;5015641;28;112811;-76
2022/08/03 10:26:03;;;;;;;8.02;1.80;;;;;;;33.10;37.11;101438.44;5005238;28;122987;-76
2022/08/03 10:28:35;;;;;;;9.23;2.10;;;;;;;33.12;37.07;101436.34;5016121;28;122884;-77
2022/08/03 10:31:09;;;;;;;5.00;1.50;;;;;;;33.19;37.01;101441.00;5013435;28;115062;-76
2022/08/03 10:33:46;;;;;;;7.45;1.63;;;;;;;33.25;36.77;101423.75;5025944;27;114609;-76
2022/08/03 10:36:22;;;;;;;5.55;1.80;;;;;;;33.31;37.03;101425.66;5005545;28;123705;-76
2022/08/03 10:38:55;;;;;;;8.05;1.83;;;;;;;33.37;36.87;101416.59;5004478;28;123737;-76
2022/08/03 10:41:25;;;;;;;6.70;1.85;;;;;;;33.41;36.68;101417.88;5024272;27;113428;-77
2022/08/03 10:44:08;;;;;;;6.28;1.88;;;;;;;33.45;36.72;101419.13;4998040;28;113803;-77
2022/08/03 10:46:39;;;;;;;7.28;1.88;;;;;;;33.46;36.25;101420.84;5008304;28;123440;-76
2022/08/03 10:49:16;;;;;;;8.45;2.08;;;;;;;33.48;36.06;101417.91;4999054;28;124302;-77
2022/08/03 10:52:03;;;;;;;9.40;2.20;;;;;;;33.52;36.04;101420.00;5030269;27;114763;-77
2022/08/03 10:57:53;;;;;;;9.65;1.83;;;;;;;33.59;36.02;101402.69;5007105;28;123197;-77
2022/08/03 11:00:27;;;;;;;7.30;1.90;;;;;;;33.67;36.06;101416.28;5007647;28;125563;-76
2022/08/03 11:03:05;;;;;;;9.43;2.15;;;;;;;33.72;35.94;101411.00;5005677;28;113548;-77
2022/08/03 11:05:38;;;;;;;9.25;2.08;;;;;;;33.79;35.90;101406.34;5008579;28;114985;-76
2022/08/03 11:08:30;;;;;;;13.15;2.05;;;;;;;33.85;36.22;101408.28;5030323;27;123271;-76
2022/08/03 11:11:27;;;;;;;7.97;2.13;;;;;;;33.90;35.58;101400.22;4997476;28;122390;-76
2022/08/03 11:14:06;;;;;;;7.78;2.35;;;;;;;33.96;35.58;101392.22;5017927;28;114216;-76
2022/08/03 11:16:40;;;;;;;10.00;2.30;;;;;;;34.03;35.44;101387.56;5012114;28;112871;-76
2022/08/03 11:19:09;;;;;;;7.20;2.50;;;;;;;34.11;35.39;101390.09;5024129;28;123175;-76
2022/08/03 11:21:49;;;;;;;11.85;2.35;;;;;;;34.16;35.43;101392.22;5005491;28;122175;-76
2022/08/03 11:24:35;;;;;;;11.65;2.20;;;;;;;34.22;35.10;101394.97;5023858;28;113271;-76
2022/08/03 11:27:14;;;;;;;7.57;2.08;;;;;;;34.26;35.21;101388.00;5018041;28;114054;-76
2022/08/03 11:30:00;;;;;;;8.93;1.80;;;;;;;34.29;34.95;101384.81;5017019;28;123614;-75
2022/08/03 11:32:36;;;;;;;7.47;1.90;;;;;;;34.35;35.04;101385.03;5028945;28;124271;-76
2022/08/03 11:35:24;;;;;;;11.43;2.42;;;;;;;34.37;34.94;101382.91;5048242;28;115142;-75
2022/08/03 11:37:57;;;;;;;11.07;2.25;;;;;;;34.43;34.91;101382.03;5047141;28;115228;-76
2022/08/03 11:40:43;;;;;;;9.02;2.08;;;;;;;34.54;34.98;101389.66;5030917;28;123689;-75
2022/08/03 11:43:29;;;;;;;9.25;2.10;;;;;;;34.66;34.66;101390.69;5048103;27;123530;-76
2022/08/03 11:46:03;;;;;;;11.57;2.50;;;;;;;34.71;34.06;101388.13;5024599;28;113994;-77
2022/08/03 11:48:43;;;;;;;10.73;2.00;;;;;;;34.75;33.46;101379.47;5022863;28;113705;-76